createdAt,value
2022-08-26T00:02:01.931Z,612.47
2022-08-26T00:04:34.298Z,688.20
2022-08-26T00:07:03.370Z,528.50
2022-08-26T00:09:38.881Z,409.40
2022-08-26T00:12:12.236Z,485.33
2022-08-26T00:14:42.273Z,349.75
2022-08-26T00:17:12.103Z,503.88
2022-08-26T00:19:42.592Z,758.40
2022-08-26T00:22:12.195Z,692.17
2022-08-26T00:24:41.257Z,524.95
2022-08-26T00:27:17.045Z,669.17
2022-08-26T00:29:46.416Z,623.40
2022-08-26T00:32:15.568Z,538.08
2022-08-26T00:34:46.384Z,560.30
2022-08-26T00:37:16.396Z,589.33
2022-08-26T00:39:45.658Z,629.78
2022-08-26T00:42:14.730Z,625.55
2022-08-26T00:44:44.854Z,568.92
2022-08-26T00:47:21.585Z,560.20
2022-08-26T00:49:52.843Z,562.25
2022-08-26T00:52:24.399Z,562.97
2022-08-26T00:55:02.578Z,539.45
2022-08-26T00:57:32.911Z,573.60
2022-08-26T01:00:05.748Z,495.05
2022-08-26T01:02:34.832Z,546.53
2022-08-26T01:05:08.394Z,536.55
2022-08-26T01:07:37.494Z,392.15
2022-08-26T01:10:10.888Z,412.20
2022-08-26T01:12:44.061Z,417.77
2022-08-26T01:15:18.324Z,395.92
2022-08-26T01:17:47.649Z,421.25
2022-08-26T01:20:30.458Z,405.33
2022-08-26T01:23:03.205Z,438.33
2022-08-26T01:25:35.380Z,440.83
2022-08-26T01:28:07.721Z,436.02
2022-08-26T01:30:39.700Z,417.77
2022-08-26T01:33:17.061Z,425.30
2022-08-26T01:35:46.541Z,459.50
2022-08-26T01:38:19.771Z,476.27
2022-08-26T01:40:49.499Z,464.65
2022-08-26T01:43:23.389Z,451.75
2022-08-26T01:45:55.055Z,498.98
2022-08-26T01:48:29.504Z,462.05
2022-08-26T01:50:59.572Z,452.27
2022-08-26T01:53:30.960Z,368.40
2022-08-26T01:56:03.962Z,360.88
2022-08-26T01:58:37.782Z,459.10
2022-08-26T02:01:09.615Z,285.70
2022-08-26T02:03:51.003Z,269.42
2022-08-26T02:06:21.343Z,330.45
2022-08-26T02:08:55.595Z,406.00
2022-08-26T02:11:24.897Z,445.35
2022-08-26T02:13:59.821Z,367.95
2022-08-26T02:16:33.847Z,400.92
2022-08-26T02:19:06.064Z,379.83
2022-08-26T02:21:37.557Z,380.27
2022-08-26T02:24:13.377Z,435.15
2022-08-26T02:26:43.226Z,438.70
2022-08-26T02:29:19.762Z,334.05
2022-08-26T02:31:50.414Z,365.98
2022-08-26T02:34:28.238Z,423.70
2022-08-26T02:37:02.338Z,461.30
2022-08-26T02:39:35.080Z,375.10
2022-08-26T02:42:05.473Z,532.33
2022-08-26T02:44:34.806Z,511.95
2022-08-26T02:47:05.211Z,531.33
2022-08-26T02:49:34.330Z,552.22
2022-08-26T02:52:03.482Z,642.78
2022-08-26T02:54:33.954Z,658.00
2022-08-26T02:57:03.264Z,560.67
2022-08-26T02:59:32.625Z,568.05
2022-08-26T03:02:03.216Z,716.08
2022-08-26T03:04:33.361Z,774.97
2022-08-26T03:07:03.109Z,759.97
2022-08-26T03:09:34.393Z,724.95
2022-08-26T03:12:03.613Z,670.33
2022-08-26T03:14:32.965Z,755.38
2022-08-26T03:17:02.434Z,763.78
2022-08-26T03:19:33.148Z,862.13
2022-08-26T03:22:04.928Z,971.35
2022-08-26T03:24:35.335Z,923.33
2022-08-26T03:27:05.936Z,946.33
2022-08-26T03:29:53.961Z,892.03
2022-08-26T03:32:22.945Z,640.67
2022-08-26T03:34:56.650Z,762.10
2022-08-26T03:37:25.639Z,695.45
2022-08-26T03:39:56.498Z,831.45
2022-08-26T03:42:25.576Z,717.33
2022-08-26T03:44:54.571Z,607.58
2022-08-26T03:47:23.541Z,820.63
2022-08-26T03:49:52.793Z,999.45
2022-08-26T03:52:22.502Z,1277.40
2022-08-26T03:54:51.496Z,1020.40
2022-08-26T03:57:21.912Z,979.00
2022-08-26T03:59:51.480Z,1079.00
2022-08-26T04:02:20.964Z,933.20
2022-08-26T04:04:50.060Z,759.55
2022-08-26T04:07:19.262Z,936.97
2022-08-26T04:09:48.805Z,638.47
2022-08-26T04:12:17.831Z,742.65
2022-08-26T04:14:48.273Z,692.78
2022-08-26T04:17:17.333Z,834.20
2022-08-26T04:19:46.443Z,806.17
2022-08-26T04:22:15.656Z,796.00
2022-08-26T04:24:53.432Z,831.50
2022-08-26T04:27:22.402Z,648.22
2022-08-26T04:29:55.219Z,572.03
2022-08-26T04:32:24.414Z,517.15
2022-08-26T04:34:53.700Z,471.00
2022-08-26T04:37:22.764Z,423.88
2022-08-26T04:39:53.554Z,333.92
2022-08-26T04:42:23.267Z,213.10
2022-08-26T04:44:56.588Z,226.45
2022-08-26T04:47:29.198Z,236.32
2022-08-26T04:50:01.929Z,217.13
2022-08-26T04:52:31.663Z,236.10
2022-08-26T04:55:00.741Z,224.50
2022-08-26T04:57:29.802Z,242.43
2022-08-26T05:00:00.718Z,246.77
2022-08-26T05:02:31.641Z,225.60
2022-08-26T05:05:01.919Z,224.15
2022-08-26T05:07:32.743Z,209.93
2022-08-26T05:10:01.882Z,241.27
2022-08-26T05:12:32.863Z,208.88
2022-08-26T05:15:03.287Z,215.57
2022-08-26T05:17:33.492Z,227.63
2022-08-26T05:20:02.492Z,227.02
2022-08-26T05:22:33.051Z,212.85
2022-08-26T05:25:02.105Z,187.90
2022-08-26T05:27:31.509Z,191.73
2022-08-26T05:30:03.433Z,167.38
2022-08-26T05:32:33.253Z,154.27
2022-08-26T05:35:02.381Z,158.40
2022-08-26T05:37:31.702Z,145.32
2022-08-26T05:40:00.902Z,155.73
2022-08-26T05:42:34.820Z,149.45
2022-08-26T05:45:06.647Z,148.13
2022-08-26T05:47:35.968Z,127.95
2022-08-26T05:50:05.823Z,125.57
2022-08-26T05:52:34.984Z,140.70
2022-08-26T05:55:03.967Z,134.90
2022-08-26T05:57:35.368Z,125.50
2022-08-26T06:00:09.819Z,124.13
2022-08-26T06:02:41.192Z,117.22
2022-08-26T06:05:10.688Z,113.38
2022-08-26T06:07:57.460Z,97.13
2022-08-26T06:10:32.670Z,91.78
2022-08-26T06:13:09.253Z,87.55
2022-08-26T06:15:45.731Z,88.05
2022-08-26T06:18:16.823Z,75.05
2022-08-26T06:20:56.900Z,80.93
2022-08-26T06:23:46.282Z,83.03
2022-08-26T06:26:16.566Z,66.95
2022-08-26T06:28:45.803Z,53.70
2022-08-26T06:31:16.683Z,47.35
2022-08-26T06:33:46.308Z,34.65
2022-08-26T06:36:20.575Z,34.60
2022-08-26T06:38:50.590Z,36.88
2022-08-26T06:41:21.384Z,29.27
2022-08-26T06:43:50.849Z,35.90
2022-08-26T06:46:23.014Z,39.30
2022-08-26T06:48:55.950Z,35.47
2022-08-26T06:51:28.184Z,39.85
2022-08-26T06:54:00.323Z,31.38
2022-08-26T06:56:37.275Z,37.28
2022-08-26T06:59:07.687Z,31.67
2022-08-26T07:01:43.015Z,27.13
2022-08-26T07:04:22.139Z,22.38
2022-08-26T07:06:53.923Z,30.00
2022-08-26T07:09:24.016Z,25.77
2022-08-26T07:11:55.968Z,21.40
2022-08-26T07:14:26.259Z,20.88
2022-08-26T07:16:56.857Z,33.15
2022-08-26T07:19:30.657Z,27.58
2022-08-26T07:22:03.644Z,32.30
2022-08-26T07:24:35.076Z,22.08
2022-08-26T07:27:08.703Z,29.85
2022-08-26T07:29:39.630Z,34.78
2022-08-26T07:32:11.614Z,25.48
2022-08-26T07:34:41.837Z,23.85
2022-08-26T07:37:11.058Z,21.38
2022-08-26T07:39:41.831Z,21.58
2022-08-26T07:42:14.524Z,22.17
2022-08-26T07:44:44.896Z,21.95
2022-08-26T07:47:24.994Z,23.20
2022-08-26T07:49:56.101Z,22.55
2022-08-26T07:52:27.439Z,14.57
2022-08-26T07:54:58.382Z,17.70
2022-08-26T07:57:27.642Z,12.32
2022-08-26T07:59:57.231Z,19.00
2022-08-26T08:02:29.237Z,12.07
2022-08-26T08:04:59.570Z,11.77
2022-08-26T08:07:38.746Z,15.35
2022-08-26T08:10:19.215Z,10.82
2022-08-26T08:12:51.701Z,11.27
2022-08-26T08:15:25.054Z,21.17
2022-08-26T08:17:58.847Z,18.52
2022-08-26T08:20:30.208Z,21.50
2022-08-26T08:22:59.533Z,16.15
2022-08-26T08:25:29.324Z,12.45
2022-08-26T08:27:58.490Z,13.30
2022-08-26T08:30:28.201Z,10.90
2022-08-26T08:32:58.653Z,9.93
2022-08-26T08:35:28.723Z,10.38
2022-08-26T08:37:58.874Z,15.15
2022-08-26T08:40:29.320Z,8.98
2022-08-26T08:43:03.988Z,16.33
2022-08-26T08:45:40.581Z,15.07
2022-08-26T08:48:20.011Z,16.63
2022-08-26T08:50:55.507Z,13.93
2022-08-26T08:53:33.000Z,13.15
2022-08-26T08:56:12.588Z,9.10
2022-08-26T08:58:52.055Z,14.27
2022-08-26T09:01:29.582Z,10.90
2022-08-26T09:04:18.946Z,14.45
2022-08-26T09:06:53.046Z,20.83
2022-08-26T09:09:31.282Z,12.55
2022-08-26T09:12:03.110Z,13.50
2022-08-26T09:14:33.210Z,8.93
2022-08-26T09:17:09.006Z,11.32
2022-08-26T09:19:44.329Z,7.65
2022-08-26T09:22:29.663Z,8.50
2022-08-26T09:24:58.641Z,10.55
2022-08-26T09:27:42.665Z,10.25
2022-08-26T09:30:15.309Z,11.43
2022-08-26T09:32:55.940Z,10.88
2022-08-26T09:35:34.179Z,9.20
2022-08-26T09:38:03.198Z,13.15
2022-08-26T09:40:35.299Z,13.23
2022-08-26T09:43:11.515Z,19.85
2022-08-26T09:45:51.123Z,14.05
2022-08-26T09:48:30.254Z,12.77
2022-08-26T09:51:03.565Z,19.85
2022-08-26T09:53:36.744Z,37.92
2022-08-26T09:56:16.884Z,17.88
2022-08-26T09:58:48.434Z,10.23
2022-08-26T10:01:30.412Z,8.38
2022-08-26T10:04:09.918Z,10.27
2022-08-26T10:06:43.389Z,12.25
2022-08-26T10:09:17.402Z,16.52
2022-08-26T10:11:52.207Z,7.53
2022-08-26T10:14:26.375Z,10.90
2022-08-26T10:17:03.408Z,8.48
2022-08-26T10:19:41.774Z,7.57
2022-08-26T10:22:36.601Z,7.15
2022-08-26T10:25:12.490Z,12.52
2022-08-26T10:27:51.132Z,9.23
2022-08-26T10:30:30.546Z,7.55
2022-08-26T10:33:03.843Z,7.90
2022-08-26T10:35:36.267Z,7.53
2022-08-26T10:38:12.326Z,10.48
2022-08-26T10:40:53.124Z,8.65
2022-08-26T10:43:26.797Z,11.55
2022-08-26T10:46:00.763Z,7.47
2022-08-26T10:48:40.604Z,12.05
2022-08-26T10:51:11.556Z,8.07
2022-08-26T10:53:52.908Z,8.88
2022-08-26T10:56:34.211Z,9.35
2022-08-26T10:59:12.550Z,8.05
2022-08-26T11:01:50.949Z,7.57
2022-08-26T11:04:48.694Z,10.82
2022-08-26T11:07:39.921Z,9.10
2022-08-26T11:10:35.678Z,10.65
2022-08-26T11:13:07.116Z,10.93
2022-08-26T11:16:03.576Z,8.60
2022-08-26T11:18:47.246Z,13.15
2022-08-26T11:21:49.409Z,10.75
2022-08-26T11:24:41.698Z,11.77
2022-08-26T11:27:34.348Z,12.95
2022-08-26T11:30:06.992Z,8.70
2022-08-26T11:32:51.899Z,8.07
2022-08-26T11:35:49.825Z,9.15
2022-08-26T11:38:30.036Z,8.18
2022-08-26T11:41:09.683Z,11.35
2022-08-26T11:43:42.684Z,16.70
2022-08-26T11:46:13.531Z,10.27
2022-08-26T11:48:44.708Z,11.52
2022-08-26T11:51:24.193Z,12.80
2022-08-26T11:54:09.075Z,13.13
2022-08-26T11:56:42.052Z,11.52
2022-08-26T11:59:16.733Z,6.25
2022-08-26T12:01:50.316Z,10.10
2022-08-26T12:04:28.895Z,20.65
2022-08-26T12:07:00.786Z,11.25
2022-08-26T12:09:33.040Z,12.30
2022-08-26T12:12:14.189Z,14.45
2022-08-26T12:14:44.869Z,13.80
2022-08-26T12:17:16.909Z,14.75
2022-08-26T12:19:46.478Z,8.05
2022-08-26T12:22:20.958Z,7.25
2022-08-26T12:24:53.749Z,12.52
2022-08-26T12:27:24.946Z,12.90
2022-08-26T12:30:10.123Z,20.35
2022-08-26T12:32:56.543Z,7.35
2022-08-26T12:35:29.429Z,11.82
2022-08-26T12:37:59.678Z,10.77
2022-08-26T12:40:34.445Z,8.93
2022-08-26T12:45:38.466Z,9.50
2022-08-26T12:48:24.471Z,7.17
2022-08-26T12:50:54.400Z,12.52
2022-08-26T12:53:25.458Z,13.85
2022-08-26T12:55:57.900Z,7.65
2022-08-26T12:58:31.861Z,11.35
2022-08-26T13:01:22.787Z,7.55
2022-08-26T13:03:52.335Z,6.65
2022-08-26T13:06:31.481Z,12.82
2022-08-26T13:09:02.313Z,7.65
2022-08-26T13:11:33.750Z,9.65
2022-08-26T13:14:07.264Z,8.57
2022-08-26T13:16:39.436Z,7.47
2022-08-26T13:19:10.952Z,7.95
2022-08-26T13:21:45.170Z,8.15
2022-08-26T13:24:17.391Z,7.35
2022-08-26T13:26:49.157Z,7.80
2022-08-26T13:29:19.766Z,17.15
2022-08-26T13:31:52.659Z,8.18
2022-08-26T13:34:24.198Z,11.55
2022-08-26T13:36:56.477Z,7.93
2022-08-26T13:39:26.548Z,13.02
2022-08-26T13:41:56.184Z,8.35
2022-08-26T13:44:25.551Z,10.32
2022-08-26T13:46:56.038Z,7.55
2022-08-26T13:49:25.182Z,7.75
2022-08-26T13:51:54.367Z,13.05
2022-08-26T13:54:23.424Z,8.10
2022-08-26T13:56:52.469Z,15.00
2022-08-26T13:59:21.801Z,6.97
2022-08-26T14:01:50.815Z,10.60
2022-08-26T14:04:27.240Z,10.10
2022-08-26T14:06:56.717Z,8.90
2022-08-26T14:09:25.894Z,10.02
2022-08-26T14:11:55.425Z,8.63
2022-08-26T14:14:25.250Z,8.75
2022-08-26T14:16:59.830Z,11.90
2022-08-26T14:19:31.780Z,10.88
2022-08-26T14:22:01.933Z,14.27
2022-08-26T14:24:31.566Z,7.00
2022-08-26T14:27:00.620Z,13.82
2022-08-26T14:29:29.664Z,7.95
2022-08-26T14:32:01.630Z,15.07
2022-08-26T14:34:32.060Z,21.67
2022-08-26T14:37:08.213Z,16.63
2022-08-26T14:39:38.343Z,25.65
2022-08-26T14:42:09.250Z,13.77
2022-08-26T14:44:38.699Z,17.15
2022-08-26T14:47:08.311Z,13.60
2022-08-26T14:49:38.959Z,16.25
2022-08-26T14:52:08.149Z,9.95
2022-08-26T14:54:37.592Z,14.18
2022-08-26T14:57:09.096Z,9.55
2022-08-26T14:59:41.243Z,13.30
2022-08-26T15:02:13.761Z,10.07
2022-08-26T15:04:48.570Z,11.90
2022-08-26T15:07:17.631Z,9.55
2022-08-26T15:09:46.851Z,9.90
2022-08-26T15:12:15.961Z,8.38
2022-08-26T15:14:45.114Z,7.10
2022-08-26T15:17:14.625Z,9.98
2022-08-26T15:19:43.725Z,12.50
2022-08-26T15:22:14.242Z,10.13
2022-08-26T15:24:43.485Z,14.68
2022-08-26T15:27:13.905Z,11.98
2022-08-26T15:29:44.006Z,20.73
2022-08-26T15:32:13.382Z,11.60
2022-08-26T15:34:42.526Z,11.05
2022-08-26T15:37:11.779Z,10.75
2022-08-26T15:39:42.378Z,11.93
2022-08-26T15:42:11.766Z,13.68
2022-08-26T15:44:44.972Z,14.93
2022-08-26T15:47:14.518Z,11.30
2022-08-26T15:49:43.595Z,13.90
2022-08-26T15:52:12.691Z,9.85
2022-08-26T15:54:43.212Z,13.32
2022-08-26T15:57:15.362Z,15.23
2022-08-26T15:59:45.632Z,17.60
2022-08-26T16:02:14.826Z,11.60
2022-08-26T16:04:44.251Z,8.85
2022-08-26T16:07:13.455Z,11.15
2022-08-26T16:09:44.050Z,14.82
2022-08-26T16:12:13.186Z,12.68
2022-08-26T16:14:43.058Z,22.83
2022-08-26T16:17:12.425Z,19.30
2022-08-26T16:19:41.517Z,11.88
2022-08-26T16:22:10.605Z,16.15
2022-08-26T16:24:39.752Z,12.50
2022-08-26T16:27:10.392Z,13.32
2022-08-26T16:29:40.047Z,14.48
2022-08-26T16:32:09.405Z,14.77
2022-08-26T16:34:38.456Z,18.00
2022-08-26T16:37:24.510Z,14.05
2022-08-26T16:39:53.672Z,10.90
2022-08-26T16:42:24.416Z,15.55
2022-08-26T16:44:53.524Z,14.80
2022-08-26T16:47:24.291Z,16.25
2022-08-26T16:49:53.858Z,15.32
2022-08-26T16:52:23.129Z,21.73
2022-08-26T16:54:57.688Z,12.75
2022-08-26T16:57:28.187Z,11.20
2022-08-26T16:59:57.369Z,12.23
2022-08-26T17:02:26.759Z,17.30
2022-08-26T17:04:55.957Z,10.50
2022-08-26T17:07:25.578Z,13.05
2022-08-26T17:09:54.883Z,15.43
2022-08-26T17:12:24.709Z,22.17
2022-08-26T17:14:55.287Z,17.92
2022-08-26T17:17:24.607Z,22.70
2022-08-26T17:19:53.817Z,16.38
2022-08-26T17:22:23.075Z,16.13
2022-08-26T17:24:52.243Z,15.13
2022-08-26T17:27:21.316Z,12.15
2022-08-26T17:29:50.357Z,12.98
2022-08-26T17:32:20.988Z,13.02
2022-08-26T17:34:50.026Z,14.90
2022-08-26T17:37:19.022Z,12.80
2022-08-26T17:39:48.292Z,16.23
2022-08-26T17:42:17.414Z,15.82
2022-08-26T17:44:48.467Z,15.98
2022-08-26T17:47:17.612Z,18.33
2022-08-26T17:49:48.101Z,24.38
2022-08-26T17:52:17.104Z,16.30
2022-08-26T17:54:46.301Z,16.55
2022-08-26T17:57:15.465Z,13.73
2022-08-26T17:59:44.495Z,14.00
2022-08-26T18:02:15.584Z,14.93
2022-08-26T18:04:44.936Z,16.85
2022-08-26T18:07:15.445Z,16.70
2022-08-26T18:09:44.581Z,15.25
2022-08-26T18:12:14.184Z,17.42
2022-08-26T18:14:43.538Z,16.65
2022-08-26T18:17:12.749Z,20.70
2022-08-26T18:19:47.039Z,22.30
2022-08-26T18:22:17.923Z,27.70
2022-08-26T18:24:55.411Z,21.80
2022-08-26T18:27:28.285Z,22.00
2022-08-26T18:29:58.219Z,16.40
2022-08-26T18:32:27.288Z,23.00
2022-08-26T18:34:56.374Z,21.88
2022-08-26T18:37:29.518Z,12.88
2022-08-26T18:40:00.655Z,14.65
2022-08-26T18:42:30.163Z,23.60
2022-08-26T18:44:59.201Z,22.80
2022-08-26T18:47:28.468Z,14.10
2022-08-26T18:49:57.769Z,19.27
2022-08-26T18:52:28.334Z,17.67
2022-08-26T18:54:57.356Z,17.27
2022-08-26T18:57:26.571Z,19.20
2022-08-26T18:59:55.607Z,19.52
2022-08-26T19:02:24.815Z,13.65
2022-08-26T19:04:54.673Z,15.75
2022-08-26T19:07:23.821Z,21.48
2022-08-26T19:09:54.306Z,17.25
2022-08-26T19:12:23.476Z,16.95
2022-08-26T19:14:56.056Z,14.18
2022-08-26T19:17:25.067Z,19.60
2022-08-26T19:19:54.783Z,14.80
2022-08-26T19:22:23.807Z,12.75
2022-08-26T19:24:54.284Z,16.88
2022-08-26T19:27:23.273Z,16.50
2022-08-26T19:29:52.533Z,17.48
2022-08-26T19:32:24.374Z,15.60
2022-08-26T19:34:53.646Z,23.05
2022-08-26T19:37:23.054Z,31.10
2022-08-26T19:39:53.479Z,31.15
2022-08-26T19:42:22.561Z,50.08
2022-08-26T19:45:24.885Z,50.33
2022-08-26T19:47:54.499Z,63.72
2022-08-26T19:50:24.654Z,68.20
2022-08-26T19:52:54.110Z,56.55
2022-08-26T19:55:26.256Z,56.47
2022-08-26T19:57:55.457Z,50.47
2022-08-26T20:00:26.656Z,43.42
2022-08-26T20:02:56.705Z,44.33
2022-08-26T20:05:27.633Z,41.88
2022-08-26T20:07:56.786Z,39.70
2022-08-26T20:10:27.469Z,49.78
2022-08-26T20:12:56.521Z,45.97
2022-08-26T20:15:25.590Z,33.22
2022-08-26T20:17:58.081Z,37.28
2022-08-26T20:20:44.642Z,37.80
2022-08-26T20:23:13.791Z,55.28
2022-08-26T20:25:45.313Z,111.82
2022-08-26T20:28:14.480Z,77.90
2022-08-26T20:30:43.584Z,98.30
2022-08-26T20:33:13.103Z,75.70
2022-08-26T20:35:42.265Z,81.63
2022-08-26T20:38:12.042Z,80.28
2022-08-26T20:40:42.324Z,82.75
2022-08-26T20:43:12.914Z,65.68
2022-08-26T20:45:42.345Z,70.82
2022-08-26T20:48:11.726Z,69.75
2022-08-26T20:50:41.001Z,82.07
2022-08-26T20:53:10.081Z,96.22
2022-08-26T20:55:39.184Z,96.85
2022-08-26T20:58:08.434Z,90.25
2022-08-26T21:00:40.562Z,93.80
2022-08-26T21:03:09.669Z,104.70
2022-08-26T21:05:38.763Z,127.97
2022-08-26T21:08:07.859Z,98.35
2022-08-26T21:10:37.838Z,106.97
2022-08-26T21:13:07.521Z,138.98
2022-08-26T21:15:37.726Z,117.60
2022-08-26T21:18:09.173Z,133.65
2022-08-26T21:20:38.893Z,115.55
2022-08-26T21:23:08.095Z,146.00
2022-08-26T21:25:37.211Z,128.40
2022-08-26T21:28:06.443Z,145.15
2022-08-26T21:30:39.038Z,151.45
2022-08-26T21:33:09.876Z,118.82
2022-08-26T21:35:38.963Z,137.23
2022-08-26T21:38:08.039Z,109.75
2022-08-26T21:40:37.257Z,107.35
2022-08-26T21:43:06.343Z,108.82
2022-08-26T21:45:40.806Z,194.23
2022-08-26T21:48:11.590Z,115.68
2022-08-26T21:50:40.986Z,131.80
2022-08-26T21:53:10.449Z,138.18
2022-08-26T21:55:39.652Z,134.48
2022-08-26T21:58:08.799Z,156.63
2022-08-26T22:00:38.041Z,149.40
2022-08-26T22:03:07.129Z,177.75
2022-08-26T22:05:44.254Z,156.10
2022-08-26T22:08:13.997Z,189.30
2022-08-26T22:10:44.065Z,223.15
2022-08-26T22:13:15.372Z,182.15
2022-08-26T22:15:45.021Z,175.52
2022-08-26T22:18:14.305Z,200.32
2022-08-26T22:20:45.624Z,223.15
2022-08-26T22:23:14.998Z,163.82
2022-08-26T22:25:44.097Z,145.27
2022-08-26T22:28:13.406Z,134.38
2022-08-26T22:30:43.814Z,123.75
2022-08-26T22:33:13.139Z,132.35
2022-08-26T22:35:45.174Z,140.45
2022-08-26T22:38:14.477Z,151.95
2022-08-26T22:40:46.095Z,128.30
2022-08-26T22:43:15.659Z,121.85
2022-08-26T22:45:47.037Z,126.45
2022-08-26T22:48:18.088Z,124.55
2022-08-26T22:50:49.458Z,130.90
2022-08-26T22:53:19.885Z,127.97
2022-08-26T22:55:49.100Z,126.68
2022-08-26T22:58:19.873Z,147.32
2022-08-26T23:00:50.005Z,125.18
2022-08-26T23:03:20.475Z,122.82
2022-08-26T23:05:51.377Z,123.10
2022-08-26T23:08:23.494Z,118.40
2022-08-26T23:10:53.312Z,129.80
2022-08-26T23:13:22.338Z,138.50
2022-08-26T23:16:00.373Z,141.52
2022-08-26T23:18:29.678Z,138.93
2022-08-26T23:21:00.093Z,137.50
2022-08-26T23:23:29.209Z,139.82
2022-08-26T23:25:58.565Z,137.93
2022-08-26T23:28:27.768Z,131.82
2022-08-26T23:30:56.817Z,145.85
2022-08-26T23:33:45.830Z,144.70
2022-08-26T23:36:18.066Z,132.85
2022-08-26T23:38:52.611Z,145.65
2022-08-26T23:43:52.786Z,143.68
2022-08-26T23:46:22.150Z,139.77
2022-08-26T23:48:51.251Z,142.98
2022-08-26T23:51:39.249Z,161.15
2022-08-26T23:54:08.288Z,161.98
2022-08-26T23:56:38.884Z,166.35
2022-08-26T23:59:08.622Z,221.18
